sensor_id;sensor_type;location;lat;lon;timestamp;temperature;humidity
3086;DHT22;52812;48.960;9.108;2023-03-21T00:00:45;9.20;99.90
3086;DHT22;52812;48.960;9.108;2023-03-21T00:03:12;9.20;99.90
3086;DHT22;52812;48.960;9.108;2023-03-21T00:05:42;9.20;99.90
3086;DHT22;52812;48.960;9.108;2023-03-21T00:08:14;9.20;99.90
3086;DHT22;52812;48.960;9.108;2023-03-21T00:10:40;9.20;99.90
3086;DHT22;52812;48.960;9.108;2023-03-21T00:13:06;9.10;99.90
3086;DHT22;52812;48.960;9.108;2023-03-21T00:15:32;9.10;99.90
3086;DHT22;52812;48.960;9.108;2023-03-21T00:17:58;9.10;99.90
3086;DHT22;52812;48.960;9.108;2023-03-21T00:20:31;9.00;99.90
3086;DHT22;52812;48.960;9.108;2023-03-21T00:22:59;9.00;99.90
3086;DHT22;52812;48.960;9.108;2023-03-21T00:25:26;9.00;99.90
3086;DHT22;52812;48.960;9.108;2023-03-21T00:27:52;9.00;99.90
3086;DHT22;52812;48.960;9.108;2023-03-21T00:30:17;9.00;99.90
3086;DHT22;52812;48.960;9.108;2023-03-21T00:32:45;9.00;99.90
3086;DHT22;52812;48.960;9.108;2023-03-21T00:35:11;9.00;99.90
3086;DHT22;52812;48.960;9.108;2023-03-21T00:37:37;9.00;99.90
3086;DHT22;52812;48.960;9.108;2023-03-21T00:40:04;9.00;99.90
3086;DHT22;52812;48.960;9.108;2023-03-21T00:42:36;9.00;99.90
3086;DHT22;52812;48.960;9.108;2023-03-21T00:45:03;9.00;99.90
3086;DHT22;52812;48.960;9.108;2023-03-21T00:47:35;9.00;99.90
3086;DHT22;52812;48.960;9.108;2023-03-21T00:50:00;9.00;99.90
3086;DHT22;52812;48.960;9.108;2023-03-21T00:52:26;9.00;99.90
3086;DHT22;52812;48.960;9.108;2023-03-21T00:54:51;9.00;99.90
3086;DHT22;52812;48.960;9.108;2023-03-21T00:57:17;9.00;99.90
3086;DHT22;52812;48.960;9.108;2023-03-21T00:59:44;9.00;99.90
3086;DHT22;52812;48.960;9.108;2023-03-21T01:02:09;9.00;99.90
3086;DHT22;52812;48.960;9.108;2023-03-21T01:04:39;8.90;99.90
3086;DHT22;52812;48.960;9.108;2023-03-21T01:07:04;8.90;99.90
3086;DHT22;52812;48.960;9.108;2023-03-21T01:09:30;8.90;99.90
3086;DHT22;52812;48.960;9.108;2023-03-21T01:11:57;8.90;99.90
3086;DHT22;52812;48.960;9.108;2023-03-21T01:14:23;8.90;99.90
3086;DHT22;52812;48.960;9.108;2023-03-21T01:16:50;8.90;99.90
3086;DHT22;52812;48.960;9.108;2023-03-21T01:19:18;8.90;99.90
3086;DHT22;52812;48.960;9.108;2023-03-21T01:21:44;8.90;99.90
3086;DHT22;52812;48.960;9.108;2023-03-21T01:24:10;8.90;99.90
3086;DHT22;52812;48.960;9.108;2023-03-21T01:26:36;8.90;99.90
3086;DHT22;52812;48.960;9.108;2023-03-21T01:29:04;8.90;99.90
3086;DHT22;52812;48.960;9.108;2023-03-21T01:31:30;8.90;99.90
3086;DHT22;52812;48.960;9.108;2023-03-21T01:33:56;8.90;99.90
3086;DHT22;52812;48.960;9.108;2023-03-21T01:36:24;8.90;99.90
3086;DHT22;52812;48.960;9.108;2023-03-21T01:38:50;8.90;99.90
3086;DHT22;52812;48.960;9.108;2023-03-21T01:41:31;8.80;99.90
3086;DHT22;52812;48.960;9.108;2023-03-21T01:43:57;8.80;99.90
3086;DHT22;52812;48.960;9.108;2023-03-21T01:46:44;8.80;99.90
3086;DHT22;52812;48.960;9.108;2023-03-21T01:49:26;8.80;99.90
3086;DHT22;52812;48.960;9.108;2023-03-21T01:51:59;8.80;99.90
3086;DHT22;52812;48.960;9.108;2023-03-21T01:54:30;8.80;99.90
3086;DHT22;52812;48.960;9.108;2023-03-21T01:56:59;8.80;99.90
3086;DHT22;52812;48.960;9.108;2023-03-21T02:01:52;8.80;99.90
3086;DHT22;52812;48.960;9.108;2023-03-21T02:04:19;8.70;99.90
3086;DHT22;52812;48.960;9.108;2023-03-21T02:07:08;8.70;99.90
3086;DHT22;52812;48.960;9.108;2023-03-21T02:09:37;8.70;99.90
3086;DHT22;52812;48.960;9.108;2023-03-21T02:12:05;8.70;99.90
3086;DHT22;52812;48.960;9.108;2023-03-21T02:14:34;8.70;99.90
3086;DHT22;52812;48.960;9.108;2023-03-21T02:17:06;8.70;99.90
3086;DHT22;52812;48.960;9.108;2023-03-21T02:27:29;8.60;99.90
3086;DHT22;52812;48.960;9.108;2023-03-21T02:35:58;8.60;99.90
3086;DHT22;52812;48.960;9.108;2023-03-21T02:38:42;8.60;99.90
3086;DHT22;52812;48.960;9.108;2023-03-21T02:41:16;8.60;99.90
3086;DHT22;52812;48.960;9.108;2023-03-21T02:46:42;8.60;99.90
3086;DHT22;52812;48.960;9.108;2023-03-21T02:49:54;8.60;99.90
3086;DHT22;52812;48.960;9.108;2023-03-21T02:52:27;8.60;99.90
3086;DHT22;52812;48.960;9.108;2023-03-21T02:54:56;8.50;99.90
3086;DHT22;52812;48.960;9.108;2023-03-21T02:57:22;8.40;99.90
3086;DHT22;52812;48.960;9.108;2023-03-21T02:59:49;8.40;99.90
3086;DHT22;52812;48.960;9.108;2023-03-21T03:02:16;8.40;99.90
3086;DHT22;52812;48.960;9.108;2023-03-21T03:04:45;8.40;99.90
3086;DHT22;52812;48.960;9.108;2023-03-21T03:10:49;8.40;99.90
3086;DHT22;52812;48.960;9.108;2023-03-21T03:16:03;8.40;99.90
3086;DHT22;52812;48.960;9.108;2023-03-21T03:18:53;8.40;99.90
3086;DHT22;52812;48.960;9.108;2023-03-21T03:24:01;8.30;99.90
3086;DHT22;52812;48.960;9.108;2023-03-21T03:26:34;8.30;99.90
3086;DHT22;52812;48.960;9.108;2023-03-21T03:29:08;8.30;99.90
3086;DHT22;52812;48.960;9.108;2023-03-21T03:32:00;8.30;99.90
3086;DHT22;52812;48.960;9.108;2023-03-21T03:34:32;8.30;99.90
3086;DHT22;52812;48.960;9.108;2023-03-21T03:37:02;8.30;99.90
3086;DHT22;52812;48.960;9.108;2023-03-21T03:39:35;8.40;99.90
3086;DHT22;52812;48.960;9.108;2023-03-21T03:42:06;8.30;99.90
3086;DHT22;52812;48.960;9.108;2023-03-21T03:44:34;8.30;99.90
3086;DHT22;52812;48.960;9.108;2023-03-21T03:47:04;8.30;99.90
3086;DHT22;52812;48.960;9.108;2023-03-21T03:49:36;8.30;99.90
3086;DHT22;52812;48.960;9.108;2023-03-21T03:52:11;8.20;99.90
3086;DHT22;52812;48.960;9.108;2023-03-21T03:54:41;8.20;99.90
3086;DHT22;52812;48.960;9.108;2023-03-21T03:57:08;8.20;99.90
3086;DHT22;52812;48.960;9.108;2023-03-21T03:59:37;8.10;99.90
3086;DHT22;52812;48.960;9.108;2023-03-21T04:02:03;8.10;99.90
3086;DHT22;52812;48.960;9.108;2023-03-21T04:04:29;8.10;99.90
3086;DHT22;52812;48.960;9.108;2023-03-21T04:06:56;8.00;99.90
3086;DHT22;52812;48.960;9.108;2023-03-21T04:09:24;8.00;99.90
3086;DHT22;52812;48.960;9.108;2023-03-21T04:11:50;8.10;99.90
3086;DHT22;52812;48.960;9.108;2023-03-21T04:14:15;8.00;99.90
3086;DHT22;52812;48.960;9.108;2023-03-21T04:16:41;8.00;99.90
3086;DHT22;52812;48.960;9.108;2023-03-21T04:19:07;8.00;99.90
3086;DHT22;52812;48.960;9.108;2023-03-21T04:21:33;8.00;99.90
3086;DHT22;52812;48.960;9.108;2023-03-21T04:23:58;8.00;99.90
3086;DHT22;52812;48.960;9.108;2023-03-21T04:26:24;8.00;99.90
3086;DHT22;52812;48.960;9.108;2023-03-21T04:28:52;8.00;99.90
3086;DHT22;52812;48.960;9.108;2023-03-21T04:31:17;8.00;99.90
3086;DHT22;52812;48.960;9.108;2023-03-21T04:33:43;7.90;99.90
3086;DHT22;52812;48.960;9.108;2023-03-21T04:36:09;7.80;99.90
3086;DHT22;52812;48.960;9.108;2023-03-21T04:38:51;7.80;99.90
3086;DHT22;52812;48.960;9.108;2023-03-21T04:41:17;7.80;99.90
3086;DHT22;52812;48.960;9.108;2023-03-21T04:43:43;7.80;99.90
3086;DHT22;52812;48.960;9.108;2023-03-21T04:46:09;7.80;99.90
3086;DHT22;52812;48.960;9.108;2023-03-21T04:48:35;7.80;99.90
3086;DHT22;52812;48.960;9.108;2023-03-21T04:51:01;7.80;99.90
3086;DHT22;52812;48.960;9.108;2023-03-21T04:53:26;7.80;99.90
3086;DHT22;52812;48.960;9.108;2023-03-21T04:55:52;7.80;99.90
3086;DHT22;52812;48.960;9.108;2023-03-21T04:58:17;7.80;99.90
3086;DHT22;52812;48.960;9.108;2023-03-21T05:00:45;7.80;99.90
3086;DHT22;52812;48.960;9.108;2023-03-21T05:03:10;7.90;99.90
3086;DHT22;52812;48.960;9.108;2023-03-21T05:05:45;7.90;99.90
3086;DHT22;52812;48.960;9.108;2023-03-21T05:08:12;7.80;99.90
3086;DHT22;52812;48.960;9.108;2023-03-21T05:10:38;7.80;99.90
3086;DHT22;52812;48.960;9.108;2023-03-21T05:13:04;7.80;99.90
3086;DHT22;52812;48.960;9.108;2023-03-21T05:15:29;7.80;99.90
3086;DHT22;52812;48.960;9.108;2023-03-21T05:17:55;7.80;99.90
3086;DHT22;52812;48.960;9.108;2023-03-21T05:20:23;7.80;99.90
3086;DHT22;52812;48.960;9.108;2023-03-21T05:22:49;7.80;99.90
3086;DHT22;52812;48.960;9.108;2023-03-21T05:25:16;7.80;99.90
3086;DHT22;52812;48.960;9.108;2023-03-21T05:27:46;7.90;99.90
3086;DHT22;52812;48.960;9.108;2023-03-21T05:30:18;7.80;99.90
3086;DHT22;52812;48.960;9.108;2023-03-21T05:32:44;7.80;99.90
3086;DHT22;52812;48.960;9.108;2023-03-21T05:35:11;7.90;99.90
3086;DHT22;52812;48.960;9.108;2023-03-21T05:37:37;7.90;99.90
3086;DHT22;52812;48.960;9.108;2023-03-21T05:40:04;7.80;99.90
3086;DHT22;52812;48.960;9.108;2023-03-21T05:42:31;7.90;99.90
3086;DHT22;52812;48.960;9.108;2023-03-21T05:44:57;7.90;99.90
3086;DHT22;52812;48.960;9.108;2023-03-21T05:47:22;7.90;99.90
3086;DHT22;52812;48.960;9.108;2023-03-21T05:49:48;7.90;99.90
3086;DHT22;52812;48.960;9.108;2023-03-21T05:52:14;7.90;99.90
3086;DHT22;52812;48.960;9.108;2023-03-21T05:54:40;8.00;99.90
3086;DHT22;52812;48.960;9.108;2023-03-21T05:57:06;8.00;99.90
3086;DHT22;52812;48.960;9.108;2023-03-21T05:59:32;8.10;99.90
3086;DHT22;52812;48.960;9.108;2023-03-21T06:01:57;8.10;99.90
3086;DHT22;52812;48.960;9.108;2023-03-21T06:04:23;8.20;99.90
3086;DHT22;52812;48.960;9.108;2023-03-21T06:06:49;8.30;99.90
3086;DHT22;52812;48.960;9.108;2023-03-21T06:09:16;8.30;99.90
3086;DHT22;52812;48.960;9.108;2023-03-21T06:11:46;8.30;99.90
3086;DHT22;52812;48.960;9.108;2023-03-21T06:14:12;8.20;99.90
3086;DHT22;52812;48.960;9.108;2023-03-21T06:16:38;8.30;99.90
3086;DHT22;52812;48.960;9.108;2023-03-21T06:19:04;8.30;99.90
3086;DHT22;52812;48.960;9.108;2023-03-21T06:21:29;8.30;99.90
3086;DHT22;52812;48.960;9.108;2023-03-21T06:23:55;8.30;99.90
3086;DHT22;52812;48.960;9.108;2023-03-21T06:26:20;8.40;99.90
3086;DHT22;52812;48.960;9.108;2023-03-21T06:28:51;8.50;99.90
3086;DHT22;52812;48.960;9.108;2023-03-21T06:31:17;8.50;99.90
3086;DHT22;52812;48.960;9.108;2023-03-21T06:33:42;8.50;99.90
3086;DHT22;52812;48.960;9.108;2023-03-21T06:36:08;8.50;99.90
3086;DHT22;52812;48.960;9.108;2023-03-21T06:38:35;8.60;99.90
3086;DHT22;52812;48.960;9.108;2023-03-21T06:41:04;8.60;99.90
3086;DHT22;52812;48.960;9.108;2023-03-21T06:43:30;8.70;99.90
3086;DHT22;52812;48.960;9.108;2023-03-21T06:46:16;8.90;99.90
3086;DHT22;52812;48.960;9.108;2023-03-21T06:48:42;9.30;99.90
3086;DHT22;52812;48.960;9.108;2023-03-21T06:51:09;10.00;99.90
3086;DHT22;52812;48.960;9.108;2023-03-21T06:53:35;10.80;99.90
3086;DHT22;52812;48.960;9.108;2023-03-21T06:56:01;11.30;99.90
3086;DHT22;52812;48.960;9.108;2023-03-21T06:58:26;11.60;99.90
3086;DHT22;52812;48.960;9.108;2023-03-21T07:00:52;11.90;99.90
3086;DHT22;52812;48.960;9.108;2023-03-21T07:03:17;12.20;99.90
3086;DHT22;52812;48.960;9.108;2023-03-21T07:05:43;12.50;99.90
3086;DHT22;52812;48.960;9.108;2023-03-21T07:08:09;12.70;99.90
3086;DHT22;52812;48.960;9.108;2023-03-21T07:10:44;13.10;99.90
3086;DHT22;52812;48.960;9.108;2023-03-21T07:13:10;13.10;99.90
3086;DHT22;52812;48.960;9.108;2023-03-21T07:15:36;13.20;99.90
3086;DHT22;52812;48.960;9.108;2023-03-21T07:18:06;13.00;99.90
3086;DHT22;52812;48.960;9.108;2023-03-21T07:20:33;13.20;99.90
3086;DHT22;52812;48.960;9.108;2023-03-21T07:22:59;13.20;99.90
3086;DHT22;52812;48.960;9.108;2023-03-21T07:25:26;13.20;99.90
3086;DHT22;52812;48.960;9.108;2023-03-21T07:27:52;13.40;99.90
3086;DHT22;52812;48.960;9.108;2023-03-21T07:30:17;13.50;99.90
3086;DHT22;52812;48.960;9.108;2023-03-21T07:32:43;13.80;99.90
3086;DHT22;52812;48.960;9.108;2023-03-21T07:35:14;14.00;99.90
3086;DHT22;52812;48.960;9.108;2023-03-21T07:37:40;14.10;99.90
3086;DHT22;52812;48.960;9.108;2023-03-21T07:40:07;14.60;99.90
3086;DHT22;52812;48.960;9.108;2023-03-21T07:42:36;14.60;99.90
3086;DHT22;52812;48.960;9.108;2023-03-21T07:45:02;14.50;99.90
3086;DHT22;52812;48.960;9.108;2023-03-21T07:47:30;14.40;99.90
3086;DHT22;52812;48.960;9.108;2023-03-21T07:49:56;14.30;99.90
3086;DHT22;52812;48.960;9.108;2023-03-21T07:52:21;14.30;99.90
3086;DHT22;52812;48.960;9.108;2023-03-21T07:54:47;14.40;99.90
3086;DHT22;52812;48.960;9.108;2023-03-21T07:57:12;14.30;99.90
3086;DHT22;52812;48.960;9.108;2023-03-21T07:59:38;14.40;99.90
3086;DHT22;52812;48.960;9.108;2023-03-21T08:02:04;14.50;99.90
3086;DHT22;52812;48.960;9.108;2023-03-21T08:04:29;14.30;99.90
3086;DHT22;52812;48.960;9.108;2023-03-21T08:06:55;14.20;99.90
3086;DHT22;52812;48.960;9.108;2023-03-21T08:09:21;14.00;99.90
3086;DHT22;52812;48.960;9.108;2023-03-21T08:11:47;13.90;99.90
3086;DHT22;52812;48.960;9.108;2023-03-21T08:14:12;13.60;99.90
3086;DHT22;52812;48.960;9.108;2023-03-21T08:16:38;13.30;99.90
3086;DHT22;52812;48.960;9.108;2023-03-21T08:19:03;13.30;99.90
3086;DHT22;52812;48.960;9.108;2023-03-21T08:21:29;13.10;99.90
3086;DHT22;52812;48.960;9.108;2023-03-21T08:23:55;13.00;99.90
3086;DHT22;52812;48.960;9.108;2023-03-21T08:26:20;12.90;99.90
3086;DHT22;52812;48.960;9.108;2023-03-21T08:28:49;12.80;99.90
3086;DHT22;52812;48.960;9.108;2023-03-21T08:31:15;12.90;99.90
3086;DHT22;52812;48.960;9.108;2023-03-21T08:33:42;13.00;99.90
3086;DHT22;52812;48.960;9.108;2023-03-21T08:36:08;13.00;99.90
3086;DHT22;52812;48.960;9.108;2023-03-21T08:38:34;13.10;99.90
3086;DHT22;52812;48.960;9.108;2023-03-21T08:41:00;13.20;99.90
3086;DHT22;52812;48.960;9.108;2023-03-21T08:43:27;13.20;99.90
3086;DHT22;52812;48.960;9.108;2023-03-21T08:45:53;13.00;99.90
3086;DHT22;52812;48.960;9.108;2023-03-21T08:48:19;13.00;99.90
3086;DHT22;52812;48.960;9.108;2023-03-21T08:50:44;13.10;99.90
3086;DHT22;52812;48.960;9.108;2023-03-21T08:53:10;13.30;99.90
3086;DHT22;52812;48.960;9.108;2023-03-21T08:55:36;13.50;99.90
3086;DHT22;52812;48.960;9.108;2023-03-21T08:58:02;13.70;99.90
3086;DHT22;52812;48.960;9.108;2023-03-21T09:00:28;13.80;99.90
3086;DHT22;52812;48.960;9.108;2023-03-21T09:02:53;13.90;99.90
3086;DHT22;52812;48.960;9.108;2023-03-21T09:05:20;14.00;99.90
3086;DHT22;52812;48.960;9.108;2023-03-21T09:07:47;14.10;99.90
3086;DHT22;52812;48.960;9.108;2023-03-21T09:10:19;14.20;99.90
3086;DHT22;52812;48.960;9.108;2023-03-21T09:12:45;14.30;99.90
3086;DHT22;52812;48.960;9.108;2023-03-21T09:15:11;14.30;99.90
3086;DHT22;52812;48.960;9.108;2023-03-21T09:17:38;14.30;99.90
3086;DHT22;52812;48.960;9.108;2023-03-21T09:20:12;14.30;99.90
3086;DHT22;52812;48.960;9.108;2023-03-21T09:22:46;14.30;99.90
3086;DHT22;52812;48.960;9.108;2023-03-21T09:25:13;14.20;99.90
3086;DHT22;52812;48.960;9.108;2023-03-21T09:27:39;14.30;99.90
3086;DHT22;52812;48.960;9.108;2023-03-21T09:30:05;14.60;99.90
3086;DHT22;52812;48.960;9.108;2023-03-21T09:32:33;14.80;99.90
3086;DHT22;52812;48.960;9.108;2023-03-21T09:34:59;14.80;99.90
3086;DHT22;52812;48.960;9.108;2023-03-21T09:37:25;14.70;99.90
3086;DHT22;52812;48.960;9.108;2023-03-21T09:39:51;14.90;99.90
3086;DHT22;52812;48.960;9.108;2023-03-21T09:45:39;15.10;99.90
3086;DHT22;52812;48.960;9.108;2023-03-21T09:48:16;15.40;99.90
3086;DHT22;52812;48.960;9.108;2023-03-21T09:50:44;15.50;99.90
3086;DHT22;52812;48.960;9.108;2023-03-21T09:53:22;15.50;99.90
3086;DHT22;52812;48.960;9.108;2023-03-21T09:55:50;15.30;99.90
3086;DHT22;52812;48.960;9.108;2023-03-21T09:58:41;15.30;99.90
3086;DHT22;52812;48.960;9.108;2023-03-21T10:01:09;15.00;99.90
3086;DHT22;52812;48.960;9.108;2023-03-21T10:03:47;15.00;99.90
3086;DHT22;52812;48.960;9.108;2023-03-21T10:06:15;15.30;99.90
3086;DHT22;52812;48.960;9.108;2023-03-21T10:08:44;15.50;99.90
3086;DHT22;52812;48.960;9.108;2023-03-21T10:11:23;15.90;99.90
3086;DHT22;52812;48.960;9.108;2023-03-21T10:14:30;15.90;99.90
3086;DHT22;52812;48.960;9.108;2023-03-21T10:16:58;15.70;99.90
3086;DHT22;52812;48.960;9.108;2023-03-21T10:19:26;16.10;99.90
3086;DHT22;52812;48.960;9.108;2023-03-21T10:21:52;16.10;99.90
3086;DHT22;52812;48.960;9.108;2023-03-21T10:24:21;16.10;99.90
3086;DHT22;52812;48.960;9.108;2023-03-21T10:26:49;16.40;99.90
3086;DHT22;52812;48.960;9.108;2023-03-21T10:29:16;16.30;99.90
3086;DHT22;52812;48.960;9.108;2023-03-21T10:31:44;16.60;99.90
3086;DHT22;52812;48.960;9.108;2023-03-21T10:34:36;16.80;99.90
3086;DHT22;52812;48.960;9.108;2023-03-21T10:37:04;16.90;99.90
3086;DHT22;52812;48.960;9.108;2023-03-21T10:39:38;16.80;99.90
3086;DHT22;52812;48.960;9.108;2023-03-21T10:42:05;16.30;99.90
3086;DHT22;52812;48.960;9.108;2023-03-21T10:44:34;16.10;99.90
3086;DHT22;52812;48.960;9.108;2023-03-21T10:47:08;16.30;99.90
3086;DHT22;52812;48.960;9.108;2023-03-21T10:49:37;16.60;99.90
3086;DHT22;52812;48.960;9.108;2023-03-21T10:52:09;16.80;99.90
3086;DHT22;52812;48.960;9.108;2023-03-21T10:54:35;16.90;99.90
3086;DHT22;52812;48.960;9.108;2023-03-21T10:57:10;17.00;99.90
3086;DHT22;52812;48.960;9.108;2023-03-21T10:59:55;17.20;99.90
3086;DHT22;52812;48.960;9.108;2023-03-21T11:02:29;17.00;99.90
3086;DHT22;52812;48.960;9.108;2023-03-21T11:04:56;16.50;99.90
3086;DHT22;52812;48.960;9.108;2023-03-21T11:07:27;16.30;99.90
3086;DHT22;52812;48.960;9.108;2023-03-21T11:09:58;16.30;99.90
3086;DHT22;52812;48.960;9.108;2023-03-21T11:12:36;16.20;99.90
3086;DHT22;52812;48.960;9.108;2023-03-21T11:15:39;16.20;99.90
3086;DHT22;52812;48.960;9.108;2023-03-21T11:18:23;16.50;99.90
3086;DHT22;52812;48.960;9.108;2023-03-21T11:20:54;16.30;99.90
3086;DHT22;52812;48.960;9.108;2023-03-21T11:23:25;16.10;99.90
3086;DHT22;52812;48.960;9.108;2023-03-21T11:25:51;15.90;99.90
3086;DHT22;52812;48.960;9.108;2023-03-21T11:28:23;15.70;99.90
3086;DHT22;52812;48.960;9.108;2023-03-21T11:33:17;15.80;99.90
3086;DHT22;52812;48.960;9.108;2023-03-21T11:35:43;16.00;99.90
3086;DHT22;52812;48.960;9.108;2023-03-21T11:38:25;16.20;99.90
3086;DHT22;52812;48.960;9.108;2023-03-21T11:40:55;15.80;99.90
3086;DHT22;52812;48.960;9.108;2023-03-21T11:46:08;15.60;99.90
3086;DHT22;52812;48.960;9.108;2023-03-21T11:48:42;15.60;99.90
3086;DHT22;52812;48.960;9.108;2023-03-21T11:51:28;15.60;99.90
3086;DHT22;52812;48.960;9.108;2023-03-21T11:56:50;15.40;99.90
3086;DHT22;52812;48.960;9.108;2023-03-21T12:02:00;15.50;99.90
3086;DHT22;52812;48.960;9.108;2023-03-21T12:04:45;15.40;99.90
3086;DHT22;52812;48.960;9.108;2023-03-21T12:15:30;15.40;99.90
3086;DHT22;52812;48.960;9.108;2023-03-21T12:21:30;15.40;99.90
3086;DHT22;52812;48.960;9.108;2023-03-21T12:26:28;15.60;99.90
3086;DHT22;52812;48.960;9.108;2023-03-21T12:29:18;15.70;99.90
3086;DHT22;52812;48.960;9.108;2023-03-21T12:32:00;15.50;99.90
3086;DHT22;52812;48.960;9.108;2023-03-21T12:43:27;15.80;99.90
3086;DHT22;52812;48.960;9.108;2023-03-21T12:46:01;15.70;99.90
3086;DHT22;52812;48.960;9.108;2023-03-21T12:48:59;15.80;99.90
3086;DHT22;52812;48.960;9.108;2023-03-21T12:51:32;15.90;99.90
3086;DHT22;52812;48.960;9.108;2023-03-21T12:54:34;15.80;99.90
3086;DHT22;52812;48.960;9.108;2023-03-21T12:59:43;16.20;99.90
3086;DHT22;52812;48.960;9.108;2023-03-21T13:02:37;16.10;99.90
3086;DHT22;52812;48.960;9.108;2023-03-21T13:07:40;16.20;99.90
3086;DHT22;52812;48.960;9.108;2023-03-21T13:10:18;16.20;99.90
3086;DHT22;52812;48.960;9.108;2023-03-21T13:15:58;15.70;99.90
3086;DHT22;52812;48.960;9.108;2023-03-21T13:18:41;15.60;99.90
3086;DHT22;52812;48.960;9.108;2023-03-21T13:21:40;15.80;99.90
3086;DHT22;52812;48.960;9.108;2023-03-21T13:27:00;15.70;99.90
3086;DHT22;52812;48.960;9.108;2023-03-21T13:29:56;15.50;99.90
3086;DHT22;52812;48.960;9.108;2023-03-21T13:32:32;15.60;99.90
3086;DHT22;52812;48.960;9.108;2023-03-21T13:35:01;15.70;99.90
3086;DHT22;52812;48.960;9.108;2023-03-21T13:37:39;15.50;99.90
3086;DHT22;52812;48.960;9.108;2023-03-21T13:40:19;15.40;99.90
3086;DHT22;52812;48.960;9.108;2023-03-21T13:42:57;15.30;99.90
3086;DHT22;52812;48.960;9.108;2023-03-21T13:47:59;15.30;99.90
3086;DHT22;52812;48.960;9.108;2023-03-21T13:50:26;15.40;99.90
3086;DHT22;52812;48.960;9.108;2023-03-21T13:53:19;15.40;99.90
3086;DHT22;52812;48.960;9.108;2023-03-21T13:55:58;15.50;99.90
3086;DHT22;52812;48.960;9.108;2023-03-21T13:58:51;15.50;99.90
3086;DHT22;52812;48.960;9.108;2023-03-21T14:01:34;15.70;99.90
3086;DHT22;52812;48.960;9.108;2023-03-21T14:04:16;15.70;99.90
3086;DHT22;52812;48.960;9.108;2023-03-21T14:09:10;15.80;99.90
3086;DHT22;52812;48.960;9.108;2023-03-21T14:11:39;15.70;99.90
3086;DHT22;52812;48.960;9.108;2023-03-21T14:14:07;15.80;99.90
3086;DHT22;52812;48.960;9.108;2023-03-21T14:16:33;15.70;99.90
3086;DHT22;52812;48.960;9.108;2023-03-21T14:19:04;15.50;99.90
3086;DHT22;52812;48.960;9.108;2023-03-21T14:21:32;15.40;99.90
3086;DHT22;52812;48.960;9.108;2023-03-21T14:24:04;15.40;99.90
3086;DHT22;52812;48.960;9.108;2023-03-21T14:26:33;15.40;99.90
3086;DHT22;52812;48.960;9.108;2023-03-21T14:29:02;15.30;99.90
3086;DHT22;52812;48.960;9.108;2023-03-21T14:31:28;15.30;99.90
3086;DHT22;52812;48.960;9.108;2023-03-21T14:33:56;15.30;99.90
3086;DHT22;52812;48.960;9.108;2023-03-21T14:36:26;15.20;99.90
3086;DHT22;52812;48.960;9.108;2023-03-21T14:38:56;15.40;99.90
3086;DHT22;52812;48.960;9.108;2023-03-21T14:41:24;15.30;99.90
3086;DHT22;52812;48.960;9.108;2023-03-21T14:44:10;15.20;99.90
3086;DHT22;52812;48.960;9.108;2023-03-21T14:46:38;15.20;99.90
3086;DHT22;52812;48.960;9.108;2023-03-21T14:49:38;15.20;99.90
3086;DHT22;52812;48.960;9.108;2023-03-21T14:52:09;15.20;99.90
3086;DHT22;52812;48.960;9.108;2023-03-21T14:54:38;15.20;99.90
3086;DHT22;52812;48.960;9.108;2023-03-21T14:57:10;15.20;99.90
3086;DHT22;52812;48.960;9.108;2023-03-21T14:59:38;15.10;99.90
3086;DHT22;52812;48.960;9.108;2023-03-21T15:02:16;15.10;99.90
3086;DHT22;52812;48.960;9.108;2023-03-21T15:04:49;15.10;99.90
3086;DHT22;52812;48.960;9.108;2023-03-21T15:07:30;15.10;99.90
3086;DHT22;52812;48.960;9.108;2023-03-21T15:09:59;15.10;99.90
3086;DHT22;52812;48.960;9.108;2023-03-21T15:12:27;15.10;99.90
3086;DHT22;52812;48.960;9.108;2023-03-21T15:14:53;15.10;99.90
3086;DHT22;52812;48.960;9.108;2023-03-21T15:17:20;15.10;99.90
3086;DHT22;52812;48.960;9.108;2023-03-21T15:19:46;15.20;99.90
3086;DHT22;52812;48.960;9.108;2023-03-21T15:22:27;14.90;99.90
3086;DHT22;52812;48.960;9.108;2023-03-21T15:24:58;15.00;99.90
3086;DHT22;52812;48.960;9.108;2023-03-21T15:27:25;15.00;99.90
3086;DHT22;52812;48.960;9.108;2023-03-21T15:29:52;15.20;99.90
3086;DHT22;52812;48.960;9.108;2023-03-21T15:32:26;15.20;99.90
3086;DHT22;52812;48.960;9.108;2023-03-21T15:34:53;15.10;99.90
3086;DHT22;52812;48.960;9.108;2023-03-21T15:37:31;15.10;99.90
3086;DHT22;52812;48.960;9.108;2023-03-21T15:42:40;14.80;99.90
3086;DHT22;52812;48.960;9.108;2023-03-21T15:45:24;14.80;99.90
3086;DHT22;52812;48.960;9.108;2023-03-21T15:47:58;14.80;99.90
3086;DHT22;52812;48.960;9.108;2023-03-21T15:50:50;14.70;99.90
3086;DHT22;52812;48.960;9.108;2023-03-21T15:53:18;14.60;99.90
3086;DHT22;52812;48.960;9.108;2023-03-21T15:55:51;14.60;99.90
3086;DHT22;52812;48.960;9.108;2023-03-21T15:58:23;14.50;99.90
3086;DHT22;52812;48.960;9.108;2023-03-21T16:00:52;14.50;99.90
3086;DHT22;52812;48.960;9.108;2023-03-21T16:03:25;14.40;99.90
3086;DHT22;52812;48.960;9.108;2023-03-21T16:11:24;14.40;99.90
3086;DHT22;52812;48.960;9.108;2023-03-21T16:13:51;14.40;99.90
3086;DHT22;52812;48.960;9.108;2023-03-21T16:16:24;14.40;99.90
3086;DHT22;52812;48.960;9.108;2023-03-21T16:18:51;14.30;99.90
3086;DHT22;52812;48.960;9.108;2023-03-21T16:21:20;14.30;99.90
3086;DHT22;52812;48.960;9.108;2023-03-21T16:23:48;14.20;99.90
3086;DHT22;52812;48.960;9.108;2023-03-21T16:26:16;14.20;99.90
3086;DHT22;52812;48.960;9.108;2023-03-21T16:28:43;14.10;99.90
3086;DHT22;52812;48.960;9.108;2023-03-21T16:31:16;14.10;99.90
3086;DHT22;52812;48.960;9.108;2023-03-21T16:33:43;14.00;99.90
3086;DHT22;52812;48.960;9.108;2023-03-21T16:36:17;13.90;99.90
3086;DHT22;52812;48.960;9.108;2023-03-21T16:38:45;13.90;99.90
3086;DHT22;52812;48.960;9.108;2023-03-21T16:41:12;13.80;99.90
3086;DHT22;52812;48.960;9.108;2023-03-21T16:43:40;13.80;99.90
3086;DHT22;52812;48.960;9.108;2023-03-21T16:46:21;13.80;99.90
3086;DHT22;52812;48.960;9.108;2023-03-21T16:48:52;13.70;99.90
3086;DHT22;52812;48.960;9.108;2023-03-21T16:51:20;13.70;99.90
3086;DHT22;52812;48.960;9.108;2023-03-21T16:53:47;13.60;99.90
3086;DHT22;52812;48.960;9.108;2023-03-21T16:56:17;13.50;99.90
3086;DHT22;52812;48.960;9.108;2023-03-21T16:58:43;13.50;99.90
3086;DHT22;52812;48.960;9.108;2023-03-21T17:01:15;13.50;99.90
3086;DHT22;52812;48.960;9.108;2023-03-21T17:03:44;13.50;99.90
3086;DHT22;52812;48.960;9.108;2023-03-21T17:06:30;13.50;99.90
3086;DHT22;52812;48.960;9.108;2023-03-21T17:08:56;13.40;99.90
3086;DHT22;52812;48.960;9.108;2023-03-21T17:11:24;13.40;99.90
3086;DHT22;52812;48.960;9.108;2023-03-21T17:13:52;13.40;99.90
3086;DHT22;52812;48.960;9.108;2023-03-21T17:16:21;13.40;99.90
3086;DHT22;52812;48.960;9.108;2023-03-21T17:18:48;13.40;99.90
3086;DHT22;52812;48.960;9.108;2023-03-21T17:21:17;13.30;99.90
3086;DHT22;52812;48.960;9.108;2023-03-21T17:23:43;13.30;99.90
3086;DHT22;52812;48.960;9.108;2023-03-21T17:26:09;13.30;99.90
3086;DHT22;52812;48.960;9.108;2023-03-21T17:28:37;13.30;99.90
3086;DHT22;52812;48.960;9.108;2023-03-21T17:31:05;13.30;99.90
3086;DHT22;52812;48.960;9.108;2023-03-21T17:33:35;13.20;99.90
3086;DHT22;52812;48.960;9.108;2023-03-21T17:36:01;13.20;99.90
3086;DHT22;52812;48.960;9.108;2023-03-21T17:38:27;13.20;99.90
3086;DHT22;52812;48.960;9.108;2023-03-21T17:40:52;13.20;99.90